sim
Sign-in with your pilot id or email,
or register
Callsign
Passwort

Schedule Details

Flight Number: OEF9064
Departure: Toronto Pearson International Airport (CYYZ) at 15:05
Arrival: Los Angeles International Airport (KLAX) at 19:50

Weather Information
Getting current METAR information for CYYZ 222200Z 15008KT 15SM -RA BKN060 BKN085 OVC220 21/16 A2985 RMK SC5AC2CI1 SLP109 DENSITY ALT 1600FT
Getting current METAR information for KLAX 222153Z 25010KT 10SM FEW095 SCT150 SCT200 23/17 A2996 RMK AO2 SLP143 T02280167 $

Schedule Frequency

Route Map